sensor_id;sensor_type;location;lat;lon;timestamp;pressure;altitude;pressure_sealevel;temperature;humidity
68301;BME280;55146;47.468;18.806;2023-04-19T00:01:57;100031.34;;;12.53;70.17
68301;BME280;55146;47.468;18.806;2023-04-19T00:04:22;100024.44;;;12.56;70.35
68301;BME280;55146;47.468;18.806;2023-04-19T00:06:48;100023.06;;;12.59;71.09
68301;BME280;55146;47.468;18.806;2023-04-19T00:09:15;100025.50;;;12.60;71.37
68301;BME280;55146;47.468;18.806;2023-04-19T00:11:40;100023.84;;;12.59;71.29
68301;BME280;55146;47.468;18.806;2023-04-19T00:14:06;100011.19;;;12.58;71.20
68301;BME280;55146;47.468;18.806;2023-04-19T00:16:31;100016.44;;;12.54;71.05
68301;BME280;55146;47.468;18.806;2023-04-19T00:18:56;100016.22;;;12.51;70.70
68301;BME280;55146;47.468;18.806;2023-04-19T00:21:22;100017.59;;;12.48;70.41
68301;BME280;55146;47.468;18.806;2023-04-19T00:23:47;100012.91;;;12.49;70.11
68301;BME280;55146;47.468;18.806;2023-04-19T00:26:12;100018.44;;;12.49;69.51
68301;BME280;55146;47.468;18.806;2023-04-19T00:28:40;100010.44;;;12.47;69.61
68301;BME280;55146;47.468;18.806;2023-04-19T00:31:05;100009.59;;;12.47;69.42
68301;BME280;55146;47.468;18.806;2023-04-19T00:33:31;100007.16;;;12.45;69.14
68301;BME280;55146;47.468;18.806;2023-04-19T00:35:57;100004.13;;;12.42;68.60
68301;BME280;55146;47.468;18.806;2023-04-19T00:38:22;100001.97;;;12.39;68.48
68301;BME280;55146;47.468;18.806;2023-04-19T00:40:47;100006.94;;;12.37;68.35
68301;BME280;55146;47.468;18.806;2023-04-19T00:43:17;100004.25;;;12.32;68.33
68301;BME280;55146;47.468;18.806;2023-04-19T00:45:43;100008.97;;;12.26;68.35
68301;BME280;55146;47.468;18.806;2023-04-19T00:48:09;100013.72;;;12.21;68.35
68301;BME280;55146;47.468;18.806;2023-04-19T00:50:34;100004.06;;;12.18;68.79
68301;BME280;55146;47.468;18.806;2023-04-19T00:53:01;100010.44;;;12.13;69.03
68301;BME280;55146;47.468;18.806;2023-04-19T00:55:26;100002.22;;;12.08;69.32
68301;BME280;55146;47.468;18.806;2023-04-19T00:57:52;100001.94;;;12.05;69.58
68301;BME280;55146;47.468;18.806;2023-04-19T01:00:18;100003.63;;;12.01;70.11
68301;BME280;55146;47.468;18.806;2023-04-19T01:02:44;100002.25;;;11.98;69.95
68301;BME280;55146;47.468;18.806;2023-04-19T01:05:10;100001.19;;;11.94;69.93
68301;BME280;55146;47.468;18.806;2023-04-19T01:07:36;99996.25;;;11.91;69.96
68301;BME280;55146;47.468;18.806;2023-04-19T01:10:01;99991.06;;;11.85;69.54
68301;BME280;55146;47.468;18.806;2023-04-19T01:12:27;99995.22;;;11.82;70.12
68301;BME280;55146;47.468;18.806;2023-04-19T01:14:52;99986.41;;;11.80;69.96
68301;BME280;55146;47.468;18.806;2023-04-19T01:17:18;99989.47;;;11.79;70.01
68301;BME280;55146;47.468;18.806;2023-04-19T01:19:44;99988.34;;;11.74;69.87
68301;BME280;55146;47.468;18.806;2023-04-19T01:22:15;99986.72;;;11.73;70.28
68301;BME280;55146;47.468;18.806;2023-04-19T01:24:40;99985.84;;;11.73;70.40
68301;BME280;55146;47.468;18.806;2023-04-19T01:27:06;99982.03;;;11.74;70.44
68301;BME280;55146;47.468;18.806;2023-04-19T01:29:32;99979.81;;;11.71;70.67
68301;BME280;55146;47.468;18.806;2023-04-19T01:31:57;99977.06;;;11.71;70.81
68301;BME280;55146;47.468;18.806;2023-04-19T01:34:22;99974.31;;;11.71;71.01
68301;BME280;55146;47.468;18.806;2023-04-19T01:36:48;99971.56;;;11.71;71.10
68301;BME280;55146;47.468;18.806;2023-04-19T01:39:13;99964.41;;;11.70;70.94
68301;BME280;55146;47.468;18.806;2023-04-19T01:41:39;99966.91;;;11.61;70.60
68301;BME280;55146;47.468;18.806;2023-04-19T01:44:04;99964.22;;;11.51;71.07
68301;BME280;55146;47.468;18.806;2023-04-19T01:46:29;99965.91;;;11.42;71.66
68301;BME280;55146;47.468;18.806;2023-04-19T01:48:55;99963.22;;;11.32;72.09
68301;BME280;55146;47.468;18.806;2023-04-19T01:51:20;99969.03;;;11.25;72.77
68301;BME280;55146;47.468;18.806;2023-04-19T01:53:48;99971.84;;;11.15;73.83
68301;BME280;55146;47.468;18.806;2023-04-19T01:56:19;99972.38;;;11.12;74.15
68301;BME280;55146;47.468;18.806;2023-04-19T01:58:46;99969.66;;;11.07;74.79
68301;BME280;55146;47.468;18.806;2023-04-19T02:01:11;99964.19;;;10.97;75.20
68301;BME280;55146;47.468;18.806;2023-04-19T02:03:38;99968.28;;;11.00;75.13
68301;BME280;55146;47.468;18.806;2023-04-19T02:06:03;99963.09;;;10.93;75.17
68301;BME280;55146;47.468;18.806;2023-04-19T02:08:29;99968.34;;;10.84;75.79
68301;BME280;55146;47.468;18.806;2023-04-19T02:10:54;99957.31;;;10.94;75.67
68301;BME280;55146;47.468;18.806;2023-04-19T02:13:20;99958.38;;;11.04;75.48
68301;BME280;55146;47.468;18.806;2023-04-19T02:15:45;99966.62;;;11.09;75.36
68301;BME280;55146;47.468;18.806;2023-04-19T02:18:11;99956.69;;;11.13;75.54
68301;BME280;55146;47.468;18.806;2023-04-19T02:20:37;99964.91;;;11.18;75.80
68301;BME280;55146;47.468;18.806;2023-04-19T02:23:03;99961.91;;;11.19;75.57
68301;BME280;55146;47.468;18.806;2023-04-19T02:25:28;99960.25;;;11.18;75.53
68301;BME280;55146;47.468;18.806;2023-04-19T02:27:54;99956.37;;;11.19;75.54
68301;BME280;55146;47.468;18.806;2023-04-19T02:30:19;99955.28;;;11.20;75.33
68301;BME280;55146;47.468;18.806;2023-04-19T02:32:47;99953.34;;;11.21;75.49
68301;BME280;55146;47.468;18.806;2023-04-19T02:35:12;99940.41;;;11.21;75.39
68301;BME280;55146;47.468;18.806;2023-04-19T02:37:37;99940.41;;;11.21;75.40
68301;BME280;55146;47.468;18.806;2023-04-19T02:40:03;99932.97;;;11.22;75.65
68301;BME280;55146;47.468;18.806;2023-04-19T02:42:29;99928.00;;;11.24;75.89
68301;BME280;55146;47.468;18.806;2023-04-19T02:44:55;99926.91;;;11.25;76.15
68301;BME280;55146;47.468;18.806;2023-04-19T02:47:20;99926.91;;;11.25;76.38
68301;BME280;55146;47.468;18.806;2023-04-19T02:49:45;99922.50;;;11.24;76.32
68301;BME280;55146;47.468;18.806;2023-04-19T02:52:11;99924.19;;;11.20;76.33
68301;BME280;55146;47.468;18.806;2023-04-19T02:54:36;99925.31;;;11.14;76.42
68301;BME280;55146;47.468;18.806;2023-04-19T02:57:01;99915.41;;;11.08;76.60
68301;BME280;55146;47.468;18.806;2023-04-19T02:59:27;99919.56;;;11.05;76.72
68301;BME280;55146;47.468;18.806;2023-04-19T03:01:52;99916.28;;;11.03;77.11
68301;BME280;55146;47.468;18.806;2023-04-19T03:04:17;99914.06;;;11.00;77.20
68301;BME280;55146;47.468;18.806;2023-04-19T03:06:43;99905.28;;;10.98;77.16
68301;BME280;55146;47.468;18.806;2023-04-19T03:09:09;99906.94;;;10.94;77.37
68301;BME280;55146;47.468;18.806;2023-04-19T03:11:34;99911.09;;;10.91;77.52
68301;BME280;55146;47.468;18.806;2023-04-19T03:14:01;99906.69;;;10.90;77.67
68301;BME280;55146;47.468;18.806;2023-04-19T03:16:26;99900.09;;;10.86;77.42
68301;BME280;55146;47.468;18.806;2023-04-19T03:18:54;99902.31;;;10.84;77.30
68301;BME280;55146;47.468;18.806;2023-04-19T03:21:20;99900.66;;;10.83;77.32
68301;BME280;55146;47.468;18.806;2023-04-19T03:23:45;99900.13;;;10.76;77.57
68301;BME280;55146;47.468;18.806;2023-04-19T03:26:10;99904.84;;;10.71;77.68
68301;BME280;55146;47.468;18.806;2023-04-19T03:28:36;99891.63;;;10.68;77.62
68301;BME280;55146;47.468;18.806;2023-04-19T03:31:01;99896.88;;;10.64;77.81
68301;BME280;55146;47.468;18.806;2023-04-19T03:33:26;99894.97;;;10.60;78.13
68301;BME280;55146;47.468;18.806;2023-04-19T03:35:52;99892.50;;;10.53;78.33
68301;BME280;55146;47.468;18.806;2023-04-19T03:38:17;99893.63;;;10.47;78.57
68301;BME280;55146;47.468;18.806;2023-04-19T03:40:42;99895.84;;;10.35;79.39
68301;BME280;55146;47.468;18.806;2023-04-19T03:43:26;99895.56;;;10.31;79.46
68301;BME280;55146;47.468;18.806;2023-04-19T03:45:52;99898.88;;;10.28;79.73
68301;BME280;55146;47.468;18.806;2023-04-19T03:48:17;99892.00;;;10.26;79.82
68301;BME280;55146;47.468;18.806;2023-04-19T03:50:42;99893.66;;;10.27;79.64
68301;BME280;55146;47.468;18.806;2023-04-19T03:53:08;99893.66;;;10.27;79.77
68301;BME280;55146;47.468;18.806;2023-04-19T03:55:33;99887.59;;;10.25;79.68
68301;BME280;55146;47.468;18.806;2023-04-19T03:57:58;99885.16;;;10.23;79.61
68301;BME280;55146;47.468;18.806;2023-04-19T04:00:24;99891.75;;;10.22;79.74
68301;BME280;55146;47.468;18.806;2023-04-19T04:02:50;99891.75;;;10.17;79.92
68301;BME280;55146;47.468;18.806;2023-04-19T04:05:15;99893.09;;;10.14;80.03
68301;BME280;55146;47.468;18.806;2023-04-19T04:07:41;99893.91;;;10.15;80.33
68301;BME280;55146;47.468;18.806;2023-04-19T04:10:07;99885.94;;;10.13;80.79
68301;BME280;55146;47.468;18.806;2023-04-19T04:12:32;99890.09;;;10.11;81.05
68301;BME280;55146;47.468;18.806;2023-04-19T04:14:58;99883.50;;;10.12;81.03
68301;BME280;55146;47.468;18.806;2023-04-19T04:17:23;99886.75;;;10.14;81.04
68301;BME280;55146;47.468;18.806;2023-04-19T04:19:49;99882.13;;;10.20;80.90
68301;BME280;55146;47.468;18.806;2023-04-19T04:22:15;99891.16;;;10.15;81.23
68301;BME280;55146;47.468;18.806;2023-04-19T04:24:41;99892.25;;;9.94;82.32
68301;BME280;55146;47.468;18.806;2023-04-19T04:27:10;99883.75;;;10.00;82.31
68301;BME280;55146;47.468;18.806;2023-04-19T04:29:36;99886.50;;;10.00;82.65
68301;BME280;55146;47.468;18.806;2023-04-19T04:32:03;99889.53;;;10.04;82.81
68301;BME280;55146;47.468;18.806;2023-04-19T04:34:28;99885.41;;;10.01;82.89
68301;BME280;55146;47.468;18.806;2023-04-19T04:36:54;99884.59;;;9.96;83.98
68301;BME280;55146;47.468;18.806;2023-04-19T04:39:19;99887.63;;;10.04;83.95
68301;BME280;55146;47.468;18.806;2023-04-19T04:41:47;99886.22;;;10.07;84.30
68301;BME280;55146;47.468;18.806;2023-04-19T04:44:12;99882.09;;;10.14;84.27
68301;BME280;55146;47.468;18.806;2023-04-19T04:46:39;99883.75;;;10.26;84.58
68301;BME280;55146;47.468;18.806;2023-04-19T04:49:04;99887.59;;;10.35;84.82
68301;BME280;55146;47.468;18.806;2023-04-19T04:51:30;99880.41;;;10.44;84.80
68301;BME280;55146;47.468;18.806;2023-04-19T04:53:56;99886.19;;;10.52;84.74
68301;BME280;55146;47.468;18.806;2023-04-19T04:56:22;99879.56;;;10.59;84.65
68301;BME280;55146;47.468;18.806;2023-04-19T04:58:47;99878.16;;;10.66;84.36
68301;BME280;55146;47.468;18.806;2023-04-19T05:01:13;99876.22;;;10.72;83.88
68301;BME280;55146;47.468;18.806;2023-04-19T05:03:38;99881.72;;;10.72;83.59
68301;BME280;55146;47.468;18.806;2023-04-19T05:06:04;99874.00;;;10.79;83.55
68301;BME280;55146;47.468;18.806;2023-04-19T05:08:29;99874.03;;;10.74;83.82
68301;BME280;55146;47.468;18.806;2023-04-19T05:10:55;99878.41;;;10.80;84.00
68301;BME280;55146;47.468;18.806;2023-04-19T05:13:20;99868.72;;;10.87;84.05
68301;BME280;55146;47.468;18.806;2023-04-19T05:15:45;99870.87;;;10.95;83.96
68301;BME280;55146;47.468;18.806;2023-04-19T05:18:11;99876.06;;;11.07;83.73
68301;BME280;55146;47.468;18.806;2023-04-19T05:20:36;99876.56;;;11.14;83.90
68301;BME280;55146;47.468;18.806;2023-04-19T05:23:01;99871.56;;;11.26;83.38
68301;BME280;55146;47.468;18.806;2023-04-19T05:25:27;99874.84;;;11.28;82.50
68301;BME280;55146;47.468;18.806;2023-04-19T05:27:53;99875.69;;;11.24;81.90
68301;BME280;55146;47.468;18.806;2023-04-19T05:30:18;99872.34;;;11.32;81.48
68301;BME280;55146;47.468;18.806;2023-04-19T05:32:44;99870.66;;;11.36;81.52
68301;BME280;55146;47.468;18.806;2023-04-19T05:35:10;99867.34;;;11.39;81.41
68301;BME280;55146;47.468;18.806;2023-04-19T05:37:36;99868.12;;;11.45;81.23
68301;BME280;55146;47.468;18.806;2023-04-19T05:40:03;99869.47;;;11.52;80.73
68301;BME280;55146;47.468;18.806;2023-04-19T05:42:30;99869.13;;;11.59;81.04
68301;BME280;55146;47.468;18.806;2023-04-19T05:44:55;99871.63;;;11.55;80.96
68301;BME280;55146;47.468;18.806;2023-04-19T05:47:20;99877.91;;;11.66;77.87
68301;BME280;55146;47.468;18.806;2023-04-19T05:49:46;99875.47;;;11.54;75.88
68301;BME280;55146;47.468;18.806;2023-04-19T05:52:11;99886.50;;;11.59;76.61
68301;BME280;55146;47.468;18.806;2023-04-19T05:54:37;99876.53;;;11.63;77.12
68301;BME280;55146;47.468;18.806;2023-04-19T05:57:02;99869.81;;;11.80;76.80
68301;BME280;55146;47.468;18.806;2023-04-19T05:59:28;99872.50;;;11.90;75.90
68301;BME280;55146;47.468;18.806;2023-04-19T06:01:53;99867.94;;;12.04;77.41
68301;BME280;55146;47.468;18.806;2023-04-19T06:04:20;99867.81;;;12.19;75.28
68301;BME280;55146;47.468;18.806;2023-04-19T06:06:45;99866.59;;;12.30;74.84
68301;BME280;55146;47.468;18.806;2023-04-19T06:09:11;99864.31;;;12.37;74.63
68301;BME280;55146;47.468;18.806;2023-04-19T06:11:37;99865.28;;;12.51;74.83
68301;BME280;55146;47.468;18.806;2023-04-19T06:14:03;99857.41;;;12.64;74.53
68301;BME280;55146;47.468;18.806;2023-04-19T06:16:29;99857.00;;;12.75;74.61
68301;BME280;55146;47.468;18.806;2023-04-19T06:18:55;99854.09;;;12.85;74.55
68301;BME280;55146;47.468;18.806;2023-04-19T06:21:20;99861.97;;;12.97;74.53
68301;BME280;55146;47.468;18.806;2023-04-19T06:23:46;99855.22;;;13.08;74.20
68301;BME280;55146;47.468;18.806;2023-04-19T06:26:11;99855.09;;;13.18;73.63
68301;BME280;55146;47.468;18.806;2023-04-19T06:28:37;99845.16;;;13.17;73.05
68301;BME280;55146;47.468;18.806;2023-04-19T06:31:03;99847.56;;;13.24;74.11
68301;BME280;55146;47.468;18.806;2023-04-19T06:33:29;99841.13;;;13.28;73.97
68301;BME280;55146;47.468;18.806;2023-04-19T06:35:54;99846.00;;;13.36;74.46
68301;BME280;55146;47.468;18.806;2023-04-19T06:38:19;99848.81;;;13.50;73.97
68301;BME280;55146;47.468;18.806;2023-04-19T06:40:45;99848.22;;;13.53;72.80
68301;BME280;55146;47.468;18.806;2023-04-19T06:43:10;99837.16;;;13.53;71.11
68301;BME280;55146;47.468;18.806;2023-04-19T06:45:35;99835.50;;;13.52;71.31
68301;BME280;55146;47.468;18.806;2023-04-19T06:48:01;99837.16;;;13.53;69.38
68301;BME280;55146;47.468;18.806;2023-04-19T06:50:26;99832.69;;;13.57;68.33
68301;BME280;55146;47.468;18.806;2023-04-19T06:52:52;99839.53;;;13.60;69.99
68301;BME280;55146;47.468;18.806;2023-04-19T06:55:18;99836.50;;;13.61;68.06
68301;BME280;55146;47.468;18.806;2023-04-19T06:57:43;99835.56;;;13.66;68.16
68301;BME280;55146;47.468;18.806;2023-04-19T07:00:09;99844.94;;;13.70;69.79
68301;BME280;55146;47.468;18.806;2023-04-19T07:02:35;99833.97;;;13.78;69.15
68301;BME280;55146;47.468;18.806;2023-04-19T07:05:01;99839.59;;;13.73;68.97
68301;BME280;55146;47.468;18.806;2023-04-19T07:07:26;99847.22;;;13.82;67.60
68301;BME280;55146;47.468;18.806;2023-04-19T07:09:51;99848.34;;;13.81;70.56
68301;BME280;55146;47.468;18.806;2023-04-19T07:12:17;99838.03;;;13.67;71.82
68301;BME280;55146;47.468;18.806;2023-04-19T07:14:42;99843.28;;;13.69;73.11
68301;BME280;55146;47.468;18.806;2023-04-19T07:17:07;99847.50;;;13.80;71.01
68301;BME280;55146;47.468;18.806;2023-04-19T07:19:33;99843.16;;;13.93;71.20
68301;BME280;55146;47.468;18.806;2023-04-19T07:21:59;99843.34;;;13.96;71.23
68301;BME280;55146;47.468;18.806;2023-04-19T07:24:25;99842.81;;;14.13;70.69
68301;BME280;55146;47.468;18.806;2023-04-19T07:26:52;99835.69;;;14.53;69.23
68301;BME280;55146;47.468;18.806;2023-04-19T07:29:17;99837.03;;;14.96;69.77
68301;BME280;55146;47.468;18.806;2023-04-19T07:31:43;99837.56;;;15.34;67.11
68301;BME280;55146;47.468;18.806;2023-04-19T07:34:08;99835.31;;;15.72;64.73
68301;BME280;55146;47.468;18.806;2023-04-19T07:36:34;99836.41;;;15.94;62.82
68301;BME280;55146;47.468;18.806;2023-04-19T07:39:01;99835.41;;;16.12;63.63
68301;BME280;55146;47.468;18.806;2023-04-19T07:41:26;99821.66;;;16.38;61.93
68301;BME280;55146;47.468;18.806;2023-04-19T07:43:52;99827.88;;;16.66;61.87
68301;BME280;55146;47.468;18.806;2023-04-19T07:46:17;99827.75;;;16.88;61.06
68301;BME280;55146;47.468;18.806;2023-04-19T07:48:43;99820.31;;;17.14;58.72
68301;BME280;55146;47.468;18.806;2023-04-19T07:51:11;99817.53;;;17.23;61.81
68301;BME280;55146;47.468;18.806;2023-04-19T07:53:38;99818.37;;;17.66;59.20
68301;BME280;55146;47.468;18.806;2023-04-19T07:56:05;99817.34;;;18.05;59.01
68301;BME280;55146;47.468;18.806;2023-04-19T07:58:31;99818.16;;;18.14;56.71
68301;BME280;55146;47.468;18.806;2023-04-19T08:00:57;99807.69;;;18.03;55.75
68301;BME280;55146;47.468;18.806;2023-04-19T08:03:22;99815.12;;;17.82;55.31
68301;BME280;55146;47.468;18.806;2023-04-19T08:05:48;99818.69;;;17.56;59.17
68301;BME280;55146;47.468;18.806;2023-04-19T08:08:13;99809.34;;;17.35;56.83
68301;BME280;55146;47.468;18.806;2023-04-19T08:10:39;99820.16;;;17.54;56.29
68301;BME280;55146;47.468;18.806;2023-04-19T08:13:04;99811.19;;;17.74;54.81
68301;BME280;55146;47.468;18.806;2023-04-19T08:15:29;99809.16;;;18.09;52.66
68301;BME280;55146;47.468;18.806;2023-04-19T08:17:55;99803.28;;;18.48;53.64
68301;BME280;55146;47.468;18.806;2023-04-19T08:20:21;99802.81;;;18.84;52.17
68301;BME280;55146;47.468;18.806;2023-04-19T08:22:46;99804.56;;;18.97;51.16
68301;BME280;55146;47.468;18.806;2023-04-19T08:25:12;99802.47;;;19.15;52.67
68301;BME280;55146;47.468;18.806;2023-04-19T08:27:37;99797.69;;;19.16;56.26
68301;BME280;55146;47.468;18.806;2023-04-19T08:30:03;99802.16;;;19.37;54.53
68301;BME280;55146;47.468;18.806;2023-04-19T08:32:28;99808.31;;;19.22;54.03
68301;BME280;55146;47.468;18.806;2023-04-19T08:34:54;99802.28;;;18.91;52.63
68301;BME280;55146;47.468;18.806;2023-04-19T08:37:19;99803.37;;;18.31;55.71
68301;BME280;55146;47.468;18.806;2023-04-19T08:39:45;99807.59;;;17.82;55.84
68301;BME280;55146;47.468;18.806;2023-04-19T08:42:10;99807.56;;;17.56;57.95
68301;BME280;55146;47.468;18.806;2023-04-19T08:44:36;99808.88;;;17.33;57.23
68301;BME280;55146;47.468;18.806;2023-04-19T08:47:05;99805.19;;;16.72;59.87
68301;BME280;55146;47.468;18.806;2023-04-19T08:49:34;99804.50;;;16.75;60.08
68301;BME280;55146;47.468;18.806;2023-04-19T08:52:03;99804.25;;;16.94;60.24
68301;BME280;55146;47.468;18.806;2023-04-19T08:54:29;99802.78;;;16.96;61.46
68301;BME280;55146;47.468;18.806;2023-04-19T08:56:57;99799.34;;;17.17;60.42
68301;BME280;55146;47.468;18.806;2023-04-19T08:59:23;99797.41;;;17.09;60.07
68301;BME280;55146;47.468;18.806;2023-04-19T09:01:48;99790.88;;;17.13;59.89
68301;BME280;55146;47.468;18.806;2023-04-19T09:04:14;99790.56;;;17.15;62.08
68301;BME280;55146;47.468;18.806;2023-04-19T09:06:39;99791.34;;;17.41;60.11
68301;BME280;55146;47.468;18.806;2023-04-19T09:09:15;99793.50;;;17.44;58.53
68301;BME280;55146;47.468;18.806;2023-04-19T09:11:40;99793.50;;;17.44;59.46
68301;BME280;55146;47.468;18.806;2023-04-19T09:14:10;99785.47;;;17.25;57.70
68301;BME280;55146;47.468;18.806;2023-04-19T09:16:36;99783.50;;;17.17;57.39
68301;BME280;55146;47.468;18.806;2023-04-19T09:19:02;99782.28;;;16.75;58.36
68301;BME280;55146;47.468;18.806;2023-04-19T09:21:28;99770.38;;;16.92;59.94
68301;BME280;55146;47.468;18.806;2023-04-19T09:23:55;99783.19;;;17.36;58.48
68301;BME280;55146;47.468;18.806;2023-04-19T09:26:20;99781.03;;;17.85;58.23
68301;BME280;55146;47.468;18.806;2023-04-19T09:28:57;99771.47;;;18.20;57.27
68301;BME280;55146;47.468;18.806;2023-04-19T09:31:24;99765.91;;;18.58;55.07
68301;BME280;55146;47.468;18.806;2023-04-19T09:33:51;99767.50;;;18.68;55.80
68301;BME280;55146;47.468;18.806;2023-04-19T09:36:29;99765.94;;;19.08;54.43
68301;BME280;55146;47.468;18.806;2023-04-19T09:38:55;99775.31;;;19.45;53.37
68301;BME280;55146;47.468;18.806;2023-04-19T09:41:21;99758.09;;;19.64;53.61
68301;BME280;55146;47.468;18.806;2023-04-19T09:43:47;99766.63;;;19.67;52.18
68301;BME280;55146;47.468;18.806;2023-04-19T09:46:34;99756.34;;;19.59;50.92
68301;BME280;55146;47.468;18.806;2023-04-19T09:49:23;99754.72;;;19.91;53.04
68301;BME280;55146;47.468;18.806;2023-04-19T09:51:50;99758.06;;;20.30;50.36
68301;BME280;55146;47.468;18.806;2023-04-19T09:54:18;99755.00;;;20.10;48.71
68301;BME280;55146;47.468;18.806;2023-04-19T09:56:44;99761.12;;;19.92;50.59
68301;BME280;55146;47.468;18.806;2023-04-19T09:59:10;99752.41;;;19.60;52.59
68301;BME280;55146;47.468;18.806;2023-04-19T10:01:41;99759.06;;;19.26;52.69
68301;BME280;55146;47.468;18.806;2023-04-19T10:04:10;99755.44;;;18.84;53.21
68301;BME280;55146;47.468;18.806;2023-04-19T10:06:49;99756.91;;;19.11;54.26
68301;BME280;55146;47.468;18.806;2023-04-19T10:09:16;99756.09;;;19.31;53.37
68301;BME280;55146;47.468;18.806;2023-04-19T10:11:46;99753.28;;;19.52;52.36
68301;BME280;55146;47.468;18.806;2023-04-19T10:14:13;99751.81;;;19.55;50.33
68301;BME280;55146;47.468;18.806;2023-04-19T10:16:39;99749.22;;;19.50;52.43
68301;BME280;55146;47.468;18.806;2023-04-19T10:19:08;99744.94;;;19.31;53.65
68301;BME280;55146;47.468;18.806;2023-04-19T10:21:35;99738.69;;;19.55;51.55
68301;BME280;55146;47.468;18.806;2023-04-19T10:24:01;99746.41;;;19.29;49.81
68301;BME280;55146;47.468;18.806;2023-04-19T10:26:27;99744.28;;;18.84;53.74
68301;BME280;55146;47.468;18.806;2023-04-19T10:28:55;99744.53;;;18.71;54.92
68301;BME280;55146;47.468;18.806;2023-04-19T10:31:24;99739.19;;;19.07;54.92
68301;BME280;55146;47.468;18.806;2023-04-19T10:33:51;99743.16;;;18.56;53.17
68301;BME280;55146;47.468;18.806;2023-04-19T10:36:17;99737.56;;;18.85;52.86
68301;BME280;55146;47.468;18.806;2023-04-19T10:38:46;99745.16;;;18.76;54.87
68301;BME280;55146;47.468;18.806;2023-04-19T10:41:13;99744.53;;;19.00;55.36
68301;BME280;55146;47.468;18.806;2023-04-19T10:43:42;99742.56;;;19.75;54.88
68301;BME280;55146;47.468;18.806;2023-04-19T10:51:39;99736.00;;;19.92;48.87
68301;BME280;55146;47.468;18.806;2023-04-19T10:59:28;99725.06;;;19.99;51.26
68301;BME280;55146;47.468;18.806;2023-04-19T11:01:56;99732.13;;;20.53;49.65
68301;BME280;55146;47.468;18.806;2023-04-19T11:04:56;99734.44;;;20.88;50.78
68301;BME280;55146;47.468;18.806;2023-04-19T11:07:08;99729.94;;;21.11;48.18
68301;BME280;55146;47.468;18.806;2023-04-19T11:09:36;99727.88;;;21.48;48.58
68301;BME280;55146;47.468;18.806;2023-04-19T11:12:03;99717.41;;;21.45;44.53
68301;BME280;55146;47.468;18.806;2023-04-19T11:14:50;99723.09;;;21.49;46.78
68301;BME280;55146;47.468;18.806;2023-04-19T11:20:08;99720.22;;;21.89;47.25
68301;BME280;55146;47.468;18.806;2023-04-19T11:22:37;99720.56;;;22.15;47.98
68301;BME280;55146;47.468;18.806;2023-04-19T11:25:15;99724.75;;;21.37;47.87
68301;BME280;55146;47.468;18.806;2023-04-19T11:27:46;99726.25;;;20.95;48.73
68301;BME280;55146;47.468;18.806;2023-04-19T11:30:21;99719.28;;;20.77;50.12
68301;BME280;55146;47.468;18.806;2023-04-19T11:32:53;99722.75;;;20.25;51.94
68301;BME280;55146;47.468;18.806;2023-04-19T11:35:21;99725.59;;;19.47;51.75
68301;BME280;55146;47.468;18.806;2023-04-19T11:37:47;99719.06;;;19.02;53.81
68301;BME280;55146;47.468;18.806;2023-04-19T11:40:16;99720.56;;;18.40;57.00
68301;BME280;55146;47.468;18.806;2023-04-19T11:42:43;99724.88;;;18.00;56.86
68301;BME280;55146;47.468;18.806;2023-04-19T11:45:09;99734.09;;;17.83;57.08
68301;BME280;55146;47.468;18.806;2023-04-19T11:47:35;99728.16;;;17.93;57.61
68301;BME280;55146;47.468;18.806;2023-04-19T11:50:29;99733.22;;;17.91;56.18
68301;BME280;55146;47.468;18.806;2023-04-19T11:52:55;99727.06;;;17.43;57.23
68301;BME280;55146;47.468;18.806;2023-04-19T11:55:21;99721.00;;;17.40;57.75
68301;BME280;55146;47.468;18.806;2023-04-19T11:57:46;99719.72;;;17.38;58.48
68301;BME280;55146;47.468;18.806;2023-04-19T12:00:12;99718.91;;;17.29;57.95
68301;BME280;55146;47.468;18.806;2023-04-19T12:02:39;99719.41;;;17.22;58.43
68301;BME280;55146;47.468;18.806;2023-04-19T12:05:10;99716.63;;;17.31;58.94
68301;BME280;55146;47.468;18.806;2023-04-19T12:07:35;99713.16;;;17.43;58.09
68301;BME280;55146;47.468;18.806;2023-04-19T12:10:08;99717.41;;;17.57;56.44
68301;BME280;55146;47.468;18.806;2023-04-19T12:12:35;99715.47;;;17.23;57.21
68301;BME280;55146;47.468;18.806;2023-04-19T12:15:00;99713.53;;;17.32;57.28
68301;BME280;55146;47.468;18.806;2023-04-19T12:17:26;99703.72;;;17.09;57.51
68301;BME280;55146;47.468;18.806;2023-04-19T12:19:51;99707.16;;;17.15;57.20
68301;BME280;55146;47.468;18.806;2023-04-19T12:22:18;99708.62;;;17.21;59.33
68301;BME280;55146;47.468;18.806;2023-04-19T12:24:51;99697.97;;;17.40;58.22
68301;BME280;55146;47.468;18.806;2023-04-19T12:27:17;99696.00;;;17.49;58.56
68301;BME280;55146;47.468;18.806;2023-04-19T12:29:43;99695.84;;;17.63;57.60
68301;BME280;55146;47.468;18.806;2023-04-19T12:32:10;99693.00;;;17.71;57.20
68301;BME280;55146;47.468;18.806;2023-04-19T12:34:35;99694.00;;;17.67;56.82
68301;BME280;55146;47.468;18.806;2023-04-19T12:37:01;99690.34;;;17.92;57.82
68301;BME280;55146;47.468;18.806;2023-04-19T12:39:28;99684.56;;;17.97;54.77
68301;BME280;55146;47.468;18.806;2023-04-19T12:41:54;99686.09;;;17.86;54.59
68301;BME280;55146;47.468;18.806;2023-04-19T12:44:20;99686.31;;;17.72;55.76
68301;BME280;55146;47.468;18.806;2023-04-19T12:46:45;99681.50;;;17.90;54.19
68301;BME280;55146;47.468;18.806;2023-04-19T12:49:11;99678.06;;;17.85;52.67
68301;BME280;55146;47.468;18.806;2023-04-19T12:51:36;99667.28;;;18.21;56.33
68301;BME280;55146;47.468;18.806;2023-04-19T12:54:01;99673.44;;;18.85;54.76
68301;BME280;55146;47.468;18.806;2023-04-19T12:56:27;99671.66;;;19.22;55.16
68301;BME280;55146;47.468;18.806;2023-04-19T12:58:52;99671.47;;;18.86;54.22
68301;BME280;55146;47.468;18.806;2023-04-19T13:01:18;99677.00;;;18.44;56.18